createdAt,value
2023-04-22T00:00:31.036Z,6.9643
2023-04-22T00:01:39.090Z,6.9357
2023-04-22T00:02:47.128Z,7.1000
2023-04-22T00:03:55.207Z,6.9429
2023-04-22T00:05:03.353Z,6.4000
2023-04-22T00:06:11.530Z,5.7500
2023-04-22T00:07:19.420Z,5.5857
2023-04-22T00:08:27.473Z,5.4286
2023-04-22T00:09:35.634Z,5.5857
2023-04-22T00:10:43.558Z,6.1571
2023-04-22T00:11:51.685Z,6.0571
2023-04-22T00:12:59.766Z,6.0500
2023-04-22T00:14:07.782Z,6.0714
2023-04-22T00:15:16.042Z,5.3571
2023-04-22T00:16:23.916Z,5.3071
2023-04-22T00:17:32.025Z,5.5786
2023-04-22T00:18:39.899Z,5.3786
2023-04-22T00:19:47.949Z,5.5357
2023-04-22T00:20:56.179Z,5.8000
2023-04-22T00:22:04.229Z,5.6929
2023-04-22T00:23:12.347Z,5.6143
2023-04-22T00:24:20.343Z,5.7786
2023-04-22T00:25:28.427Z,5.9500
2023-04-22T00:26:36.554Z,5.7786
2023-04-22T00:27:44.422Z,5.5643
2023-04-22T00:28:52.659Z,5.5571
2023-04-22T00:30:00.708Z,5.5929
2023-04-22T00:31:08.804Z,5.5786
2023-04-22T00:32:16.704Z,5.1929
2023-04-22T00:33:24.747Z,5.7000
2023-04-22T00:34:32.806Z,6.2286
2023-04-22T00:35:41.640Z,6.2500
2023-04-22T00:36:49.030Z,5.9857
2023-04-22T00:37:57.218Z,7.6214
2023-04-22T00:39:05.212Z,9.7000
2023-04-22T00:40:13.320Z,10.6143
2023-04-22T00:41:21.329Z,10.1143
2023-04-22T00:42:29.438Z,9.2357
2023-04-22T00:43:37.479Z,8.2214
2023-04-22T00:44:45.547Z,7.4286
2023-04-22T00:45:53.741Z,7.2071
2023-04-22T00:47:01.595Z,6.8857
2023-04-22T00:48:09.699Z,7.8143
2023-04-22T00:49:17.677Z,7.8000
2023-04-22T00:50:26.117Z,7.9143
2023-04-22T00:51:33.989Z,8.2286
2023-04-22T00:52:42.014Z,8.7071
2023-04-22T00:53:50.044Z,8.2429
2023-04-22T00:54:58.139Z,6.8643
2023-04-22T00:56:06.198Z,6.6214
2023-04-22T00:57:14.355Z,7.2643
2023-04-22T00:58:22.291Z,6.5214
2023-04-22T00:59:30.398Z,6.6357
2023-04-22T01:00:38.460Z,6.9214
2023-04-22T01:01:46.442Z,6.8214
2023-04-22T01:02:54.597Z,7.4286
2023-04-22T01:04:02.627Z,6.5714
2023-04-22T01:05:10.954Z,6.0714
2023-04-22T01:06:18.746Z,6.1643
2023-04-22T01:07:26.957Z,6.6500
2023-04-22T01:08:34.930Z,7.1857
2023-04-22T01:09:43.050Z,7.0214
2023-04-22T01:10:51.052Z,7.1643
2023-04-22T01:11:59.112Z,7.4714
2023-04-22T01:13:07.213Z,7.1500
2023-04-22T01:14:15.234Z,6.6214
2023-04-22T01:15:23.305Z,6.8143
2023-04-22T01:16:31.360Z,6.5286
2023-04-22T01:17:39.389Z,6.4214
2023-04-22T01:18:47.388Z,6.8429
2023-04-22T01:19:55.593Z,6.4000
2023-04-22T01:21:03.823Z,6.2786
2023-04-22T01:22:11.947Z,6.1000
2023-04-22T01:23:19.765Z,5.9714
2023-04-22T01:24:27.930Z,6.0786
2023-04-22T01:25:35.896Z,6.2643
2023-04-22T01:26:43.951Z,6.1929
2023-04-22T01:27:52.196Z,6.1714
2023-04-22T01:29:00.121Z,6.2143
2023-04-22T01:30:08.221Z,5.9929
2023-04-22T01:31:16.094Z,5.8571
2023-04-22T01:32:24.203Z,5.6643
2023-04-22T01:33:32.222Z,6.0429
2023-04-22T01:34:40.372Z,6.8071
2023-04-22T01:35:48.604Z,6.8357
2023-04-22T01:36:56.690Z,7.2500
2023-04-22T01:38:04.603Z,7.8214
2023-04-22T01:39:12.720Z,8.3286
2023-04-22T01:40:20.762Z,9.2429
2023-04-22T01:41:28.815Z,8.7857
2023-04-22T01:42:36.873Z,8.9286
2023-04-22T01:43:44.958Z,9.1857
2023-04-22T01:44:53.169Z,8.9571
2023-04-22T01:46:00.944Z,7.9500
2023-04-22T01:47:09.042Z,8.1786
2023-04-22T01:48:17.083Z,8.3000
2023-04-22T01:49:25.255Z,7.9857
2023-04-22T01:50:33.336Z,7.3143
2023-04-22T01:51:41.456Z,7.5786
2023-04-22T01:52:49.618Z,7.4714
2023-04-22T01:53:57.491Z,7.0571
2023-04-22T01:55:05.586Z,6.9286
2023-04-22T01:56:13.641Z,7.2214
2023-04-22T01:57:21.750Z,6.9571
2023-04-22T01:58:29.840Z,7.1929
2023-04-22T01:59:38.194Z,7.2429
2023-04-22T02:00:45.792Z,7.3571
2023-04-22T02:01:53.879Z,8.0500
2023-04-22T02:03:02.282Z,7.5786
2023-04-22T02:04:10.181Z,8.5000
2023-04-22T02:05:18.232Z,7.6571
2023-04-22T02:06:26.329Z,7.6571
2023-04-22T02:07:34.374Z,7.5500
2023-04-22T02:08:42.636Z,7.6071
2023-04-22T02:09:50.977Z,8.2357
2023-04-22T02:10:58.619Z,8.3643
2023-04-22T02:12:06.654Z,8.5214
2023-04-22T02:13:14.722Z,7.5214
2023-04-22T02:14:22.792Z,7.8500
2023-04-22T02:15:30.716Z,9.0714
2023-04-22T02:16:38.798Z,9.5786
2023-04-22T02:17:46.818Z,8.8929
2023-04-22T02:18:55.143Z,8.7000
2023-04-22T02:20:03.166Z,8.3286
2023-04-22T02:21:11.388Z,7.8571
2023-04-22T02:22:19.272Z,7.8714
2023-04-22T02:23:27.294Z,8.3143
2023-04-22T02:24:35.549Z,8.6000
2023-04-22T02:25:43.412Z,8.2143
2023-04-22T02:26:51.490Z,9.0714
2023-04-22T02:27:59.535Z,9.6929
2023-04-22T02:29:07.609Z,9.9214
2023-04-22T02:30:15.648Z,10.3857
2023-04-22T02:31:23.614Z,10.3429
2023-04-22T02:32:31.792Z,10.1000
2023-04-22T02:33:39.907Z,9.5643
2023-04-22T02:34:47.954Z,9.8857
2023-04-22T02:35:56.124Z,10.3786
2023-04-22T02:37:04.084Z,10.3071
2023-04-22T02:38:12.261Z,10.8286
2023-04-22T02:39:20.239Z,11.0571
2023-04-22T02:40:28.399Z,10.9500
2023-04-22T02:41:36.450Z,10.1786
2023-04-22T02:42:44.403Z,9.2214
2023-04-22T02:43:52.497Z,9.0714
2023-04-22T02:45:00.439Z,9.5571
2023-04-22T02:46:08.518Z,9.3857
2023-04-22T02:47:16.587Z,8.9714
2023-04-22T02:48:24.777Z,10.0786
2023-04-22T02:49:32.854Z,10.5643
2023-04-22T02:50:40.949Z,11.8857
2023-04-22T02:51:49.022Z,11.6286
2023-04-22T02:52:57.125Z,12.9214
2023-04-22T02:54:05.191Z,11.4071
2023-04-22T02:55:13.248Z,13.1357
2023-04-22T02:56:21.267Z,12.6000
2023-04-22T02:57:29.518Z,13.7000
2023-04-22T02:58:37.509Z,13.1214
2023-04-22T02:59:45.345Z,13.5929
2023-04-22T03:00:53.440Z,12.5714
2023-04-22T03:02:01.714Z,13.4500
2023-04-22T03:03:09.819Z,13.7571
2023-04-22T03:04:17.843Z,13.8214
2023-04-22T03:05:25.838Z,13.7857
2023-04-22T03:06:33.886Z,14.3429
2023-04-22T03:07:41.961Z,13.7286
2023-04-22T03:08:50.070Z,13.6357
2023-04-22T03:09:58.292Z,12.8929
2023-04-22T03:11:06.125Z,11.5500
2023-04-22T03:12:14.222Z,12.0786
2023-04-22T03:13:22.273Z,11.6286
2023-04-22T03:14:30.252Z,11.8786
2023-04-22T03:15:38.294Z,13.1857
2023-04-22T03:16:46.378Z,13.3786
2023-04-22T03:17:54.565Z,13.1214
2023-04-22T03:19:02.654Z,12.3786
2023-04-22T03:20:10.766Z,12.1000
2023-04-22T03:21:18.777Z,12.8000
2023-04-22T03:22:26.829Z,12.8357
2023-04-22T03:23:34.887Z,11.6429
2023-04-22T03:24:42.949Z,10.9500
2023-04-22T03:25:51.112Z,10.2214
2023-04-22T03:26:59.125Z,9.1571
2023-04-22T03:28:07.148Z,9.8500
2023-04-22T03:29:15.089Z,9.1286
2023-04-22T03:30:23.185Z,9.8571
2023-04-22T03:31:31.304Z,10.5786
2023-04-22T03:32:39.447Z,10.1786
2023-04-22T03:33:47.457Z,10.2286
2023-04-22T03:34:55.576Z,9.3929
2023-04-22T03:36:03.642Z,9.1571
2023-04-22T03:37:11.781Z,10.7357
2023-04-22T03:38:20.115Z,10.6929
2023-04-22T03:39:27.842Z,9.9143
2023-04-22T03:40:35.899Z,9.8286
2023-04-22T03:41:44.038Z,8.9857
2023-04-22T03:42:52.034Z,9.9786
2023-04-22T03:44:01.775Z,11.2143
2023-04-22T03:45:12.870Z,10.1933
2023-04-22T03:46:21.210Z,10.0929
2023-04-22T03:47:29.326Z,10.4000
2023-04-22T03:48:37.226Z,10.0643
2023-04-22T03:49:45.320Z,9.6000
2023-04-22T03:50:53.365Z,10.2714
2023-04-22T03:52:01.441Z,10.1500
2023-04-22T03:53:09.641Z,10.0786
2023-04-22T03:54:17.551Z,9.9714
2023-04-22T03:55:25.639Z,10.5357
2023-04-22T03:56:33.707Z,10.0786
2023-04-22T03:57:41.651Z,10.7786
2023-04-22T03:58:49.732Z,10.9214
2023-04-22T03:59:57.762Z,11.6071
2023-04-22T04:01:05.942Z,12.1357
2023-04-22T04:02:14.125Z,13.3786
2023-04-22T04:03:22.234Z,12.9929
2023-04-22T04:04:30.646Z,13.8786
2023-04-22T04:05:38.339Z,13.6143
2023-04-22T04:06:46.241Z,12.8500
2023-04-22T04:07:54.308Z,13.7143
2023-04-22T04:09:02.468Z,13.0071
2023-04-22T04:10:10.552Z,13.4857
2023-04-22T04:11:18.526Z,15.1071
2023-04-22T04:12:26.517Z,15.1571
2023-04-22T04:13:34.573Z,15.1286
2023-04-22T04:14:42.680Z,15.1357
2023-04-22T04:15:50.924Z,16.0929
2023-04-22T04:16:58.905Z,14.5571
2023-04-22T04:18:07.072Z,13.1571
2023-04-22T04:19:14.997Z,13.8643
2023-04-22T04:20:23.145Z,14.0429
2023-04-22T04:21:31.141Z,12.9143
2023-04-22T04:22:39.242Z,14.3143
2023-04-22T04:23:47.238Z,15.8071
2023-04-22T04:24:55.505Z,15.8714
2023-04-22T04:26:03.423Z,15.3571
2023-04-22T04:27:11.349Z,14.7571
2023-04-22T04:28:19.442Z,14.7857
2023-04-22T04:29:27.511Z,13.6714
2023-04-22T04:30:35.768Z,12.9500
2023-04-22T04:31:44.018Z,14.7857
2023-04-22T04:32:51.917Z,13.2857
2023-04-22T04:33:59.872Z,13.7643
2023-04-22T04:35:08.102Z,13.7214
2023-04-22T04:36:16.071Z,13.3429
2023-04-22T04:37:24.046Z,12.1786
2023-04-22T04:38:32.118Z,11.3786
2023-04-22T04:39:40.523Z,11.8500
2023-04-22T04:40:48.189Z,11.4000
2023-04-22T04:41:56.275Z,11.0143
2023-04-22T04:43:04.340Z,9.9786
2023-04-22T04:44:13.125Z,10.7929
2023-04-22T04:45:20.599Z,12.1143
2023-04-22T04:46:28.748Z,11.6143
2023-04-22T04:47:36.804Z,11.3571
2023-04-22T04:48:44.746Z,10.8929
2023-04-22T04:49:52.849Z,11.0571
2023-04-22T04:51:01.006Z,11.6143
2023-04-22T04:52:09.005Z,11.4286
2023-04-22T04:53:17.020Z,11.9714
2023-04-22T04:54:25.045Z,12.4000
2023-04-22T04:55:33.046Z,12.0786
2023-04-22T04:56:41.130Z,11.9286
2023-04-22T04:57:49.232Z,12.1214
2023-04-22T04:58:57.615Z,11.8857
2023-04-22T05:00:05.514Z,11.7000
2023-04-22T05:01:13.562Z,11.8643
2023-04-22T05:02:21.775Z,11.5357
2023-04-22T05:03:29.816Z,13.0000
2023-04-22T05:04:37.855Z,11.6000
2023-04-22T05:05:45.718Z,12.2643
2023-04-22T05:06:53.815Z,12.4000
2023-04-22T05:08:02.072Z,11.9429
2023-04-22T05:09:09.979Z,11.7786
2023-04-22T05:10:17.925Z,12.3929
2023-04-22T05:11:26.001Z,14.4500
2023-04-22T05:12:34.047Z,15.1571
2023-04-22T05:13:42.262Z,15.0643
2023-04-22T05:14:50.370Z,15.2786
2023-04-22T05:15:58.425Z,15.3000
2023-04-22T05:17:06.391Z,15.7571
2023-04-22T05:18:14.470Z,15.7786
2023-04-22T05:19:22.596Z,17.5714
2023-04-22T05:20:31.612Z,17.6786
2023-04-22T05:21:43.550Z,17.1667
2023-04-22T05:22:51.595Z,16.2429
2023-04-22T05:23:59.592Z,16.2929
2023-04-22T05:25:07.648Z,16.0643
2023-04-22T05:26:15.788Z,15.0571
2023-04-22T05:27:23.923Z,15.7643
2023-04-22T05:28:31.956Z,14.9143
2023-04-22T05:29:40.221Z,15.9143
2023-04-22T05:30:48.100Z,15.6786
2023-04-22T05:31:56.551Z,15.5643
2023-04-22T05:33:04.301Z,14.7643
2023-04-22T05:34:12.506Z,14.4786
2023-04-22T05:35:20.341Z,14.4786
2023-04-22T05:36:31.174Z,13.9143
2023-04-22T05:37:41.246Z,14.0000
2023-04-22T05:38:49.284Z,13.0000
2023-04-22T05:39:57.367Z,12.7786
2023-04-22T05:41:05.675Z,13.3786
2023-04-22T05:42:13.640Z,14.3857
2023-04-22T05:43:21.583Z,14.7429
2023-04-22T05:44:29.683Z,15.9143
2023-04-22T05:45:37.816Z,15.0786
2023-04-22T05:46:45.846Z,14.9286
2023-04-22T05:47:54.105Z,15.0286
2023-04-22T05:49:01.920Z,16.1000
2023-04-22T05:50:10.040Z,15.9143
2023-04-22T05:51:18.171Z,15.6500
2023-04-22T05:52:26.038Z,16.1714
2023-04-22T05:53:34.183Z,15.4357
2023-04-22T05:54:42.179Z,15.2714
2023-04-22T05:55:50.339Z,15.4643
2023-04-22T05:56:58.399Z,15.8714
2023-04-22T05:58:06.461Z,16.4571
2023-04-22T05:59:14.663Z,16.1786
2023-04-22T06:00:22.576Z,16.5714
2023-04-22T06:01:30.638Z,17.0143
2023-04-22T06:02:38.835Z,17.0429
2023-04-22T06:03:46.913Z,16.5286
2023-04-22T06:04:55.048Z,17.3786
2023-04-22T06:06:02.936Z,16.0786
2023-04-22T06:07:10.906Z,15.4786
2023-04-22T06:08:18.965Z,14.9357
2023-04-22T06:09:27.147Z,17.2500
2023-04-22T06:10:35.231Z,16.8786
2023-04-22T06:11:43.304Z,16.1786
2023-04-22T06:12:51.417Z,16.2571
2023-04-22T06:13:59.363Z,16.3500
2023-04-22T06:15:07.642Z,16.6214
2023-04-22T06:16:15.651Z,16.3571
2023-04-22T06:17:23.685Z,17.1214
2023-04-22T06:18:31.720Z,17.0429
2023-04-22T06:19:40.084Z,16.1786
2023-04-22T06:20:47.788Z,17.9000
2023-04-22T06:21:55.797Z,17.6143
2023-04-22T06:23:03.870Z,17.3857
2023-04-22T06:24:11.996Z,18.5071
2023-04-22T06:25:20.067Z,16.3286
2023-04-22T06:26:28.198Z,18.3214
2023-04-22T06:27:36.194Z,18.1429
2023-04-22T06:28:44.262Z,18.7571
2023-04-22T06:29:52.482Z,19.0143
2023-04-22T06:31:00.407Z,18.7071
2023-04-22T06:32:08.558Z,19.0071
2023-04-22T06:33:16.650Z,18.8357
2023-04-22T06:34:24.658Z,20.2000
2023-04-22T06:35:32.575Z,20.2286
2023-04-22T06:36:40.657Z,20.0143
2023-04-22T06:37:48.738Z,20.0214
2023-04-22T06:38:56.917Z,20.1786
2023-04-22T06:40:04.905Z,19.8143
2023-04-22T06:41:13.007Z,20.1000
2023-04-22T06:42:21.032Z,20.3786
2023-04-22T06:43:29.152Z,20.2143
2023-04-22T06:44:37.157Z,19.7571
2023-04-22T06:45:45.291Z,20.0571
2023-04-22T06:46:54.758Z,19.6071
2023-04-22T06:48:06.226Z,19.6467
2023-04-22T06:49:14.273Z,19.6071
2023-04-22T06:50:22.352Z,18.5786
2023-04-22T06:51:30.341Z,18.8143
2023-04-22T06:52:38.423Z,19.4857
2023-04-22T06:53:46.487Z,19.8429
2023-04-22T06:54:54.599Z,20.1143
2023-04-22T06:56:02.672Z,19.7071
2023-04-22T06:57:10.705Z,19.8786
2023-04-22T06:58:18.809Z,19.6143
2023-04-22T06:59:26.887Z,19.1286
2023-04-22T07:00:34.963Z,19.6929
2023-04-22T07:01:43.095Z,19.4786
2023-04-22T07:02:51.191Z,19.5714
2023-04-22T07:03:59.129Z,19.3071
2023-04-22T07:05:07.146Z,19.3286
2023-04-22T07:06:15.204Z,19.1929
2023-04-22T07:07:23.256Z,18.5429
2023-04-22T07:08:31.463Z,18.2857
2023-04-22T07:09:39.708Z,17.8571
2023-04-22T07:10:47.558Z,18.0429
2023-04-22T07:11:55.571Z,19.1429
2023-04-22T07:13:03.768Z,18.5000
2023-04-22T07:14:11.688Z,17.8500
2023-04-22T07:15:19.895Z,17.5571
2023-04-22T07:16:27.972Z,17.5071
2023-04-22T07:17:36.010Z,18.0429
2023-04-22T07:18:43.897Z,17.9071
2023-04-22T07:19:51.971Z,17.1500
2023-04-22T07:21:00.035Z,16.9500
2023-04-22T07:22:08.127Z,16.9286
2023-04-22T07:23:16.183Z,17.7286
2023-04-22T07:24:24.383Z,16.9571
2023-04-22T07:25:32.322Z,16.3500
2023-04-22T07:26:40.528Z,17.3214
2023-04-22T07:27:48.514Z,17.0000
2023-04-22T07:28:56.541Z,16.5929
2023-04-22T07:30:04.586Z,17.0214
2023-04-22T07:31:12.683Z,16.5643
2023-04-22T07:32:20.855Z,16.9357
2023-04-22T07:33:28.747Z,16.7357
2023-04-22T07:34:36.791Z,16.3286
2023-04-22T07:35:44.829Z,16.2643
2023-04-22T07:36:52.870Z,16.1714
2023-04-22T07:38:01.035Z,16.1714
2023-04-22T07:39:09.251Z,16.0857
2023-04-22T07:40:17.165Z,15.2857
2023-04-22T07:41:25.245Z,16.1357
2023-04-22T07:42:33.415Z,16.0929
2023-04-22T07:43:41.355Z,15.9857
2023-04-22T07:44:49.455Z,14.8286
2023-04-22T07:45:57.538Z,15.9857
2023-04-22T07:47:05.690Z,15.8857
2023-04-22T07:48:13.622Z,15.3714
2023-04-22T07:49:21.632Z,14.9071
2023-04-22T07:50:29.731Z,15.2214
2023-04-22T07:51:37.827Z,15.4000
2023-04-22T07:52:45.940Z,15.3286
2023-04-22T07:53:53.912Z,15.0000
2023-04-22T07:55:02.162Z,15.0429
2023-04-22T07:56:10.105Z,15.3214
2023-04-22T07:57:18.151Z,14.6143
2023-04-22T07:58:26.234Z,15.1500
2023-04-22T07:59:34.300Z,15.3214
2023-04-22T08:00:42.494Z,14.8429
2023-04-22T08:01:50.651Z,14.7929
2023-04-22T08:02:58.577Z,14.7429
2023-04-22T08:04:06.656Z,14.5071
2023-04-22T08:05:14.634Z,14.5643
2023-04-22T08:06:23.022Z,14.4857
2023-04-22T08:07:33.394Z,14.4357
2023-04-22T08:08:43.734Z,13.9600
2023-04-22T08:09:51.939Z,14.5000
2023-04-22T08:10:59.932Z,14.2071
2023-04-22T08:12:07.906Z,14.1286
2023-04-22T08:13:18.136Z,14.2714
2023-04-22T08:14:28.877Z,13.7133
2023-04-22T08:15:36.940Z,13.4286
2023-04-22T08:16:44.935Z,14.2357
2023-04-22T08:17:53.039Z,13.7000
2023-04-22T08:19:01.280Z,14.0714
2023-04-22T08:20:09.263Z,13.8857
2023-04-22T08:21:17.295Z,14.0571
2023-04-22T08:22:25.344Z,13.5286
2023-04-22T08:23:33.488Z,14.1857
2023-04-22T08:24:41.444Z,13.4143
2023-04-22T08:25:49.583Z,13.4000
2023-04-22T08:26:57.617Z,13.7000
2023-04-22T08:28:05.707Z,13.7643
2023-04-22T08:29:13.743Z,13.3786
2023-04-22T08:30:21.741Z,12.6000
2023-04-22T08:31:29.772Z,12.6000
2023-04-22T08:32:37.877Z,13.1143
2023-04-22T08:33:46.083Z,12.4929
2023-04-22T08:34:57.720Z,13.2857
2023-04-22T08:36:06.984Z,13.5667
2023-04-22T08:37:15.065Z,11.6500
2023-04-22T08:38:23.056Z,11.0929
2023-04-22T08:39:31.298Z,11.0929
2023-04-22T08:40:39.349Z,10.7500
2023-04-22T08:41:47.276Z,10.6786
2023-04-22T08:42:55.425Z,9.8000
2023-04-22T08:44:03.334Z,10.1571
2023-04-22T08:45:11.436Z,9.3357
2023-04-22T08:46:19.471Z,9.2786
2023-04-22T08:47:27.625Z,10.5571
2023-04-22T08:48:35.734Z,9.1143
2023-04-22T08:49:43.641Z,8.1429
2023-04-22T08:50:51.898Z,8.9214
2023-04-22T08:51:59.971Z,9.1000
2023-04-22T08:53:07.912Z,8.8286
2023-04-22T08:54:16.062Z,9.2000
2023-04-22T08:55:24.040Z,9.8643
2023-04-22T08:56:32.125Z,10.6786
2023-04-22T08:57:40.196Z,9.6286
2023-04-22T08:58:48.231Z,9.7071
2023-04-22T08:59:56.242Z,11.1000
2023-04-22T09:01:04.318Z,13.2143
2023-04-22T09:02:12.543Z,10.3857
2023-04-22T09:03:20.574Z,10.2857
2023-04-22T09:04:28.604Z,9.8429
2023-04-22T09:05:36.687Z,10.0429
2023-04-22T09:06:44.664Z,11.3143
2023-04-22T09:07:52.872Z,9.4429
2023-04-22T09:09:00.826Z,9.9571
2023-04-22T09:10:08.862Z,14.2143
2023-04-22T09:11:16.911Z,10.1286
2023-04-22T09:12:24.994Z,9.2571
2023-04-22T09:13:33.014Z,9.7214
2023-04-22T09:14:41.031Z,8.7214
2023-04-22T09:15:49.075Z,9.6286
2023-04-22T09:16:57.388Z,9.7286
2023-04-22T09:18:05.295Z,9.3143
2023-04-22T09:19:13.429Z,9.6286
2023-04-22T09:20:21.488Z,9.4429
2023-04-22T09:21:29.494Z,8.9429
2023-04-22T09:22:37.523Z,9.1286
2023-04-22T09:23:45.720Z,8.9286
2023-04-22T09:24:53.723Z,8.7286
2023-04-22T09:26:01.744Z,9.3286
2023-04-22T09:27:09.768Z,8.7643
2023-04-22T09:28:17.919Z,8.6500
2023-04-22T09:29:25.837Z,8.3571
2023-04-22T09:30:34.082Z,8.3571
2023-04-22T09:31:41.994Z,8.7286
2023-04-22T09:32:50.146Z,8.6857
2023-04-22T09:33:58.146Z,8.1214
2023-04-22T09:35:06.311Z,7.3714
2023-04-22T09:36:14.291Z,8.2071
2023-04-22T09:37:22.337Z,8.3071
2023-04-22T09:38:30.432Z,8.3071
2023-04-22T09:39:38.711Z,8.1214
2023-04-22T09:40:46.488Z,7.8857
2023-04-22T09:41:54.659Z,7.8071
2023-04-22T09:43:02.601Z,8.4786
2023-04-22T09:44:10.711Z,8.2571
2023-04-22T09:45:18.940Z,8.0643
2023-04-22T09:46:26.742Z,7.6786
2023-04-22T09:47:34.916Z,7.6929
2023-04-22T09:48:43.031Z,7.3571
2023-04-22T09:49:51.083Z,7.7286
2023-04-22T09:50:59.072Z,7.4286
2023-04-22T09:52:07.174Z,7.2786
2023-04-22T09:53:15.216Z,8.6000
2023-04-22T09:54:23.242Z,9.7500
2023-04-22T09:55:31.477Z,7.6071
2023-04-22T09:56:39.394Z,7.3286
2023-04-22T09:57:47.432Z,7.2643
2023-04-22T09:58:55.446Z,7.1786
2023-04-22T10:00:03.472Z,7.2286
2023-04-22T10:01:11.594Z,6.8643
2023-04-22T10:02:19.698Z,7.2857
2023-04-22T10:03:27.853Z,7.7214
2023-04-22T10:04:36.073Z,7.2714
2023-04-22T10:05:43.854Z,7.3071
2023-04-22T10:06:51.931Z,7.0214
2023-04-22T10:08:00.183Z,7.2571
2023-04-22T10:09:09.411Z,7.3571
2023-04-22T10:10:16.102Z,7.0929
2023-04-22T10:11:24.540Z,7.1143
2023-04-22T10:12:35.532Z,7.1071
2023-04-22T10:13:45.112Z,7.2600
2023-04-22T10:14:53.372Z,7.7143
2023-04-22T10:16:01.336Z,7.7143
2023-04-22T10:17:09.386Z,7.1571
2023-04-22T10:18:17.381Z,7.6357
2023-04-22T10:19:25.609Z,7.2929
2023-04-22T10:20:33.620Z,7.3643
2023-04-22T10:21:41.675Z,7.5929
2023-04-22T10:22:49.723Z,7.3357
2023-04-22T10:23:57.773Z,7.8500
2023-04-22T10:25:06.027Z,7.8214
2023-04-22T10:26:13.845Z,7.9000
2023-04-22T10:27:21.878Z,7.1714
2023-04-22T10:28:29.998Z,7.1786
2023-04-22T10:29:38.316Z,6.8857
2023-04-22T10:30:46.185Z,7.0643
2023-04-22T10:31:54.260Z,8.9714
2023-04-22T10:33:02.328Z,6.9643
2023-04-22T10:34:10.313Z,6.3071
2023-04-22T10:35:18.496Z,6.4214
2023-04-22T10:36:26.486Z,6.4071
2023-04-22T10:37:34.514Z,6.5071
2023-04-22T10:38:42.556Z,6.5643
2023-04-22T10:39:50.740Z,6.9143
2023-04-22T10:40:58.726Z,6.8143
2023-04-22T10:42:06.727Z,10.7214
2023-04-22T10:43:14.778Z,7.4357
2023-04-22T10:44:23.006Z,10.0357
2023-04-22T10:45:30.951Z,6.5357
2023-04-22T10:46:39.099Z,5.8643
2023-04-22T10:47:47.256Z,5.9071
2023-04-22T10:48:55.225Z,5.7357
2023-04-22T10:50:03.291Z,5.9500
2023-04-22T10:51:11.506Z,5.7571
2023-04-22T10:52:19.531Z,5.3429
2023-04-22T10:53:27.568Z,5.6071
2023-04-22T10:54:35.606Z,5.3714
2023-04-22T10:55:43.780Z,5.3000
2023-04-22T10:56:57.584Z,5.6000
2023-04-22T10:58:04.648Z,5.7200
2023-04-22T10:59:12.738Z,5.6357
2023-04-22T11:00:20.861Z,4.9857
2023-04-22T11:01:28.917Z,4.9714
2023-04-22T11:02:36.951Z,5.0500
2023-04-22T11:03:45.038Z,5.0714
2023-04-22T11:04:53.083Z,4.7071
2023-04-22T11:06:01.081Z,4.0000
2023-04-22T11:07:09.251Z,3.7714
2023-04-22T11:08:17.201Z,3.9786
2023-04-22T11:09:25.161Z,4.1429
2023-04-22T11:10:33.284Z,4.2571
2023-04-22T11:11:41.328Z,3.9286
2023-04-22T11:12:49.435Z,4.0000
2023-04-22T11:13:57.482Z,3.7500
2023-04-22T11:15:05.615Z,3.4357
2023-04-22T11:16:13.659Z,2.9571
2023-04-22T11:17:21.704Z,2.6000
2023-04-22T11:18:29.758Z,2.6857
2023-04-22T11:19:38.212Z,2.9357
2023-04-22T11:20:45.932Z,2.4143
2023-04-22T11:21:54.088Z,2.4500
2023-04-22T11:23:02.093Z,2.3929
2023-04-22T11:24:10.033Z,2.4000
2023-04-22T11:25:18.077Z,2.3643
2023-04-22T11:26:26.182Z,2.4571
2023-04-22T11:27:34.234Z,2.2571
2023-04-22T11:28:42.344Z,2.2714
2023-04-22T11:29:50.391Z,2.4786
2023-04-22T11:30:58.469Z,2.4214
2023-04-22T11:32:06.426Z,2.7071
2023-04-22T11:33:14.515Z,2.9429
2023-04-22T11:34:22.688Z,3.0071
2023-04-22T11:35:30.809Z,3.2143
2023-04-22T11:36:38.820Z,2.9643
2023-04-22T11:37:46.863Z,3.0857
2023-04-22T11:38:54.811Z,3.0786
2023-04-22T11:40:21.373Z,2.9929
2023-04-22T11:41:15.897Z,2.9667
2023-04-22T11:42:24.079Z,3.2500
2023-04-22T11:43:31.908Z,3.2786
2023-04-22T11:44:39.975Z,3.2143
2023-04-22T11:45:48.094Z,2.7214
2023-04-22T11:46:56.317Z,2.5643
2023-04-22T11:48:04.220Z,2.6429
2023-04-22T11:49:12.373Z,2.5714
2023-04-22T11:50:20.241Z,2.5714
2023-04-22T11:51:28.347Z,2.3857
2023-04-22T11:52:36.372Z,2.5071
2023-04-22T11:53:44.454Z,2.4429
2023-04-22T11:54:52.495Z,2.4357
2023-04-22T11:56:00.713Z,2.2786
2023-04-22T11:57:08.784Z,2.2786
2023-04-22T11:58:16.703Z,2.4714
2023-04-22T11:59:24.923Z,2.4357
2023-04-22T12:00:32.945Z,2.5571
2023-04-22T12:01:41.118Z,2.6500
2023-04-22T12:02:49.132Z,2.5571
2023-04-22T12:03:57.208Z,2.2643
2023-04-22T12:05:05.127Z,2.4357
2023-04-22T12:06:13.097Z,2.3000
2023-04-22T12:07:21.186Z,2.1714
2023-04-22T12:08:29.238Z,2.4286
2023-04-22T12:09:37.484Z,2.1357
2023-04-22T12:10:45.384Z,2.1571
2023-04-22T12:11:53.434Z,2.3786
2023-04-22T12:13:01.578Z,2.3429
2023-04-22T12:14:09.569Z,2.4786
2023-04-22T12:15:18.751Z,2.3357
2023-04-22T12:16:25.749Z,2.3786
2023-04-22T12:17:33.727Z,2.3071
2023-04-22T12:18:41.799Z,2.3071
2023-04-22T12:19:49.916Z,2.1714
2023-04-22T12:20:58.001Z,2.2714
2023-04-22T12:22:06.246Z,2.3857
2023-04-22T12:23:14.012Z,2.3500
2023-04-22T12:24:22.124Z,2.5786
2023-04-22T12:25:30.145Z,2.6500
2023-04-22T12:26:38.202Z,2.3357
2023-04-22T12:27:46.257Z,2.3643
2023-04-22T12:28:54.318Z,2.4643
2023-04-22T12:30:02.466Z,2.2429
2023-04-22T12:31:10.558Z,2.3929
2023-04-22T12:32:18.550Z,2.6357
2023-04-22T12:33:26.554Z,2.4000
2023-04-22T12:34:34.653Z,2.2786
2023-04-22T12:35:42.763Z,2.2857
2023-04-22T12:36:50.753Z,2.3857
2023-04-22T12:37:58.830Z,2.2857
2023-04-22T12:39:06.861Z,2.3643
2023-04-22T12:40:14.960Z,2.6286
2023-04-22T12:41:23.281Z,2.4643
2023-04-22T12:42:31.138Z,2.6571
2023-04-22T12:43:39.235Z,2.8214
2023-04-22T12:44:47.188Z,3.1143
2023-04-22T12:45:55.329Z,2.6071
2023-04-22T12:47:03.310Z,2.3571
2023-04-22T12:48:11.717Z,2.1357
2023-04-22T12:49:19.477Z,2.4500
2023-04-22T12:50:27.621Z,2.0643
2023-04-22T12:51:35.955Z,2.2714
2023-04-22T12:52:43.651Z,2.2286
2023-04-22T12:53:51.691Z,2.1929
2023-04-22T12:54:59.772Z,2.2429
2023-04-22T12:56:07.896Z,1.9929
2023-04-22T12:57:15.866Z,1.8786
2023-04-22T12:58:23.912Z,2.2571
2023-04-22T12:59:32.109Z,2.0286
2023-04-22T13:00:40.119Z,1.9000
2023-04-22T13:01:48.267Z,1.7857
2023-04-22T13:02:56.307Z,1.8786
2023-04-22T13:04:04.543Z,1.8071
2023-04-22T13:05:12.442Z,1.9929
2023-04-22T13:06:20.472Z,1.7500
2023-04-22T13:07:28.382Z,1.8071
2023-04-22T13:08:36.459Z,1.7714
2023-04-22T13:09:44.515Z,1.8286
2023-04-22T13:10:52.685Z,1.7714
2023-04-22T13:12:00.794Z,1.7286
2023-04-22T13:14:21.694Z,1.7800
2023-04-22T13:15:29.798Z,2.0429
2023-04-22T13:16:37.962Z,1.9286
2023-04-22T13:17:47.624Z,1.8929
2023-04-22T13:18:58.817Z,1.9533
2023-04-22T13:20:06.798Z,2.0071
2023-04-22T13:21:14.902Z,2.0000
2023-04-22T13:22:22.932Z,2.0357
2023-04-22T13:23:31.130Z,1.8429
2023-04-22T13:24:39.126Z,1.8143
2023-04-22T13:25:47.131Z,1.8214
2023-04-22T13:26:55.289Z,1.6286
2023-04-22T13:28:03.315Z,1.6857
2023-04-22T13:29:11.392Z,1.6714
2023-04-22T13:30:19.508Z,1.7143
2023-04-22T13:31:27.505Z,1.8286
2023-04-22T13:32:35.549Z,1.7071
2023-04-22T13:33:43.565Z,1.8143
2023-04-22T13:34:51.640Z,1.9143
2023-04-22T13:35:59.811Z,1.8929
2023-04-22T13:37:07.746Z,1.7857
2023-04-22T13:38:15.824Z,1.7714
2023-04-22T13:39:23.874Z,1.7357
2023-04-22T13:40:32.035Z,1.7714
2023-04-22T13:41:40.117Z,1.9500
2023-04-22T13:42:48.152Z,1.8571
2023-04-22T13:43:56.260Z,1.9286
2023-04-22T13:45:04.316Z,1.8714
2023-04-22T13:46:12.377Z,1.9286
2023-04-22T13:47:20.490Z,1.9786
2023-04-22T13:48:28.675Z,1.9357
2023-04-22T13:49:36.491Z,1.7857
2023-04-22T13:50:44.578Z,1.9571
2023-04-22T13:51:52.586Z,1.8857
2023-04-22T13:53:00.628Z,1.7929
2023-04-22T13:54:08.736Z,1.8071
2023-04-22T13:55:16.860Z,1.9429
2023-04-22T13:56:24.806Z,1.8286
2023-04-22T13:57:32.939Z,1.8786
2023-04-22T13:58:41.326Z,1.9786
2023-04-22T13:59:49.147Z,1.8286